Time;durP1;ratioP1;P1;durP2;ratioP2;P2;SDS_P1;SDS_P2;PMS_P1;PMS_P2;Temp;Humidity;BMP_temperature;BMP_pressure;BME280_temperature;BME280_humidity;BME280_pressure;Samples;Min_cycle;Max_cycle;Signal;HPM_P1;HPM_P2
2023/03/01 00:01:16;;;;;;;4.03;2.87;;;;;;;-5.51;100.00;102449.66;4998686;28;20048;-83
2023/03/01 00:03:43;;;;;;;4.53;2.60;;;;;;;-5.61;100.00;102442.06;5009446;28;20678;-81
2023/03/01 00:06:10;;;;;;;3.30;2.27;;;;;;;-5.57;100.00;102456.03;4997130;28;20507;-82
2023/03/01 00:08:37;;;;;;;3.90;2.30;;;;;;;-5.61;100.00;102448.91;5017508;28;20541;-83
2023/03/01 00:11:14;;;;;;;4.87;2.83;;;;;;;-5.69;100.00;102446.66;5009848;28;20291;-82
2023/03/01 00:13:41;;;;;;;4.73;2.63;;;;;;;-5.73;100.00;102457.50;4994412;28;20041;-82
2023/03/01 00:16:10;;;;;;;2.63;1.93;;;;;;;-5.77;100.00;102454.59;4973854;28;20046;-83
2023/03/01 00:18:40;;;;;;;2.93;2.23;;;;;;;-5.82;100.00;102451.66;4982932;28;20052;-82
2023/03/01 00:21:07;;;;;;;3.93;2.33;;;;;;;-5.78;100.00;102453.69;5005875;28;20494;-83
2023/03/01 00:23:36;;;;;;;4.13;1.90;;;;;;;-5.69;100.00;102456.06;4990427;28;20095;-81
2023/03/01 00:26:09;;;;;;;4.63;2.57;;;;;;;-5.62;100.00;102452.25;5007547;28;20141;-81
2023/03/01 00:28:36;;;;;;;4.33;2.23;;;;;;;-5.61;100.00;102454.03;5015725;28;20033;-82
2023/03/01 00:31:15;;;;;;;5.10;2.63;;;;;;;-5.55;100.00;102452.81;5006243;28;20033;-82
2023/03/01 00:33:42;;;;;;;6.40;2.47;;;;;;;-5.52;100.00;102458.19;4987127;28;20077;-82
2023/03/01 00:36:10;;;;;;;5.33;2.50;;;;;;;-5.60;100.00;102464.44;5003137;28;20053;-82
2023/03/01 00:38:38;;;;;;;4.07;2.20;;;;;;;-5.68;100.00;102468.13;4991785;28;20503;-81
2023/03/01 00:41:07;;;;;;;4.80;2.20;;;;;;;-5.73;100.00;102462.63;4993549;28;20363;-82
2023/03/01 00:43:37;;;;;;;4.10;2.30;;;;;;;-5.70;100.00;102455.16;4996073;28;20379;-82
2023/03/01 00:46:05;;;;;;;3.90;2.63;;;;;;;-5.83;100.00;102461.84;5013030;28;20434;-83
2023/03/01 00:48:33;;;;;;;4.00;2.30;;;;;;;-5.97;100.00;102464.34;5021652;28;20298;-81
2023/03/01 00:51:08;;;;;;;4.80;2.30;;;;;;;-6.01;100.00;102451.13;4987231;28;20335;-83
2023/03/01 00:53:35;;;;;;;3.00;1.93;;;;;;;-6.08;100.00;102448.88;5006370;28;20299;-81
2023/03/01 00:56:03;;;;;;;4.33;2.30;;;;;;;-6.09;100.00;102445.41;5002158;28;20279;-83
2023/03/01 00:58:33;;;;;;;4.97;2.60;;;;;;;-6.08;100.00;102444.63;4977509;28;20804;-82
2023/03/01 01:01:00;;;;;;;4.93;2.63;;;;;;;-6.08;100.00;102436.00;4995984;28;20376;-81
2023/03/01 01:03:27;;;;;;;6.20;2.30;;;;;;;-6.11;100.00;102431.53;4986753;28;20285;-82
2023/03/01 01:05:56;;;;;;;3.43;2.03;;;;;;;-6.19;100.00;102431.75;5001615;28;20287;-82
2023/03/01 01:08:23;;;;;;;4.10;2.73;;;;;;;-6.21;100.00;102429.06;5018103;28;21591;-82
2023/03/01 01:10:51;;;;;;;5.00;2.73;;;;;;;-6.19;100.00;102427.50;4995705;28;20337;-81
2023/03/01 01:13:21;;;;;;;6.00;2.90;;;;;;;-6.20;100.00;102411.94;4998124;28;20294;-83
2023/03/01 01:15:48;;;;;;;4.10;2.20;;;;;;;-6.18;100.00;102419.00;5005963;28;20320;-82
2023/03/01 01:18:17;;;;;;;4.30;2.50;;;;;;;-6.20;100.00;102404.22;4985894;28;20291;-82
2023/03/01 01:20:43;;;;;;;4.37;2.43;;;;;;;-6.20;100.00;102399.97;4994443;28;21022;-81
2023/03/01 01:23:10;;;;;;;5.33;2.63;;;;;;;-6.15;100.00;102402.88;5033479;28;20300;-82
2023/03/01 01:25:36;;;;;;;4.50;2.33;;;;;;;-6.18;100.00;102392.38;5002862;28;20296;-82
2023/03/01 01:28:03;;;;;;;4.30;2.40;;;;;;;-6.04;100.00;102387.47;4999086;28;20303;-83
2023/03/01 01:30:30;;;;;;;5.60;2.80;;;;;;;-6.03;100.00;102378.97;5011215;28;20431;-82
2023/03/01 01:32:57;;;;;;;5.03;2.30;;;;;;;-6.15;100.00;102375.47;5005645;28;20289;-82
2023/03/01 01:35:23;;;;;;;4.77;2.50;;;;;;;-6.30;100.00;102369.22;5000631;28;20921;-82
2023/03/01 01:37:53;;;;;;;4.70;2.60;;;;;;;-6.26;100.00;102369.53;4996998;28;20317;-83
2023/03/01 01:40:20;;;;;;;4.70;2.40;;;;;;;-6.17;100.00;102374.47;5004083;28;20311;-82
2023/03/01 01:42:49;;;;;;;3.77;2.50;;;;;;;-6.19;100.00;102370.00;5002111;28;20295;-84
2023/03/01 01:45:27;;;;;;;4.70;2.60;;;;;;;-6.36;100.00;102364.50;5005491;28;20296;-83
2023/03/01 01:47:57;;;;;;;5.73;2.80;;;;;;;-6.34;100.00;102380.94;5014521;28;20358;-83
2023/03/01 01:50:33;;;;;;;4.00;2.33;;;;;;;-6.37;100.00;102370.44;4976133;28;20904;-83
2023/03/01 01:53:00;;;;;;;5.23;2.60;;;;;;;-6.27;100.00;102382.28;5019479;28;20641;-83
2023/03/01 01:55:27;;;;;;;3.87;2.20;;;;;;;-6.25;100.00;102379.03;4982718;28;20296;-83
2023/03/01 01:57:56;;;;;;;3.47;2.37;;;;;;;-6.29;100.00;102384.75;5002444;28;20329;-83
2023/03/01 02:00:26;;;;;;;3.37;2.43;;;;;;;-6.37;100.00;102379.81;4994207;28;20300;-83
2023/03/01 02:03:00;;;;;;;3.57;2.17;;;;;;;-6.53;100.00;102376.09;4991253;28;20426;-82
2023/03/01 02:05:43;;;;;;;3.70;2.43;;;;;;;-6.58;100.00;102389.38;4981163;28;20293;-82
2023/03/01 02:08:11;;;;;;;3.60;2.57;;;;;;;-6.65;100.00;102380.28;5002732;28;20739;-82
2023/03/01 02:10:38;;;;;;;3.73;2.23;;;;;;;-6.68;100.00;102381.75;5009924;28;20296;-82
2023/03/01 02:13:05;;;;;;;5.13;2.53;;;;;;;-6.70;100.00;102388.44;5007099;28;20365;-83
2023/03/01 02:15:33;;;;;;;3.83;2.30;;;;;;;-6.72;100.00;102384.88;5035892;28;20370;-83
2023/03/01 02:18:02;;;;;;;7.27;2.73;;;;;;;-6.77;100.00;102381.03;4984297;28;20882;-82
2023/03/01 02:20:54;;;;;;;3.53;2.30;;;;;;;-6.73;100.00;102380.47;4996100;28;20303;-83
2023/03/01 02:23:21;;;;;;;3.97;2.50;;;;;;;-6.83;100.00;102382.34;4992456;28;20297;-81
2023/03/01 02:25:59;;;;;;;4.17;2.20;;;;;;;-6.85;100.00;102391.63;4973462;28;20297;-82
2023/03/01 02:28:30;;;;;;;3.57;2.30;;;;;;;-6.79;100.00;102387.75;5024448;28;20396;-82
2023/03/01 02:33:44;;;;;;;4.00;2.50;;;;;;;-6.77;100.00;102394.78;5001696;28;20342;-83
2023/03/01 02:36:15;;;;;;;5.13;2.60;;;;;;;-6.82;100.00;102398.66;5026410;28;20291;-82
2023/03/01 02:38:42;;;;;;;3.77;2.60;;;;;;;-6.82;100.00;102393.53;5020270;28;20292;-80
2023/03/01 02:41:11;;;;;;;6.43;3.30;;;;;;;-6.75;100.00;102408.63;4993583;28;20288;-82
2023/03/01 02:43:38;;;;;;;5.10;2.70;;;;;;;-6.78;100.00;102400.72;5112855;23;20826;-79
2023/03/01 02:46:08;;;;;;;5.10;2.83;;;;;;;-6.76;100.00;102390.53;5001200;28;20315;-80
2023/03/01 02:48:43;;;;;;;4.57;2.97;;;;;;;-6.79;100.00;102392.88;5010945;28;20315;-80
2023/03/01 02:51:41;;;;;;;4.07;2.40;;;;;;;-6.81;100.00;102392.75;5009593;28;20350;-79
2023/03/01 02:54:10;;;;;;;4.90;2.40;;;;;;;-6.85;100.00;102378.78;4993807;28;20285;-80
2023/03/01 02:56:36;;;;;;;6.93;2.33;;;;;;;-6.82;100.00;102373.84;4999247;28;20299;-82
2023/03/01 02:59:04;;;;;;;4.13;2.40;;;;;;;-6.72;100.00;102365.22;4997872;28;20292;-80
2023/03/01 03:01:36;;;;;;;4.07;2.47;;;;;;;-6.83;100.00;102366.94;5009391;28;20656;-80
2023/03/01 03:04:05;;;;;;;4.73;3.03;;;;;;;-7.02;100.00;102374.00;4979213;28;20384;-81
2023/03/01 03:06:32;;;;;;;5.23;3.03;;;;;;;-7.05;100.00;102378.03;4997832;28;20299;-80
2023/03/01 03:08:59;;;;;;;6.43;3.30;;;;;;;-7.10;100.00;102369.94;4984900;28;20320;-81
2023/03/01 03:11:26;;;;;;;4.23;2.60;;;;;;;-7.07;100.00;102367.63;4997412;28;20303;-79
2023/03/01 03:13:53;;;;;;;5.03;2.90;;;;;;;-6.96;100.00;102371.94;4995179;28;20296;-80
2023/03/01 03:16:20;;;;;;;4.37;2.77;;;;;;;-6.91;100.00;102362.88;5016725;28;20292;-81
2023/03/01 03:18:47;;;;;;;5.63;3.00;;;;;;;-7.05;100.00;102360.94;4997182;28;20661;-78
2023/03/01 03:21:14;;;;;;;4.40;2.90;;;;;;;-7.14;100.00;102360.22;4994304;28;20355;-81
2023/03/01 03:23:41;;;;;;;5.70;2.67;;;;;;;-7.18;100.00;102360.75;4996147;28;20662;-80
2023/03/01 03:26:08;;;;;;;3.70;2.57;;;;;;;-7.19;100.00;102359.88;5001080;28;20808;-80
2023/03/01 03:28:35;;;;;;;5.30;3.23;;;;;;;-7.13;100.00;102359.44;4999084;28;20292;-79
2023/03/01 03:31:04;;;;;;;4.87;2.97;;;;;;;-7.17;100.00;102353.16;4976984;28;20330;-79
2023/03/01 03:33:31;;;;;;;4.60;2.53;;;;;;;-7.24;100.00;102350.00;5002043;28;20299;-79
2023/03/01 03:35:57;;;;;;;5.87;3.33;;;;;;;-7.23;100.00;102351.78;5007223;28;20291;-80
2023/03/01 03:38:24;;;;;;;5.67;2.60;;;;;;;-7.19;100.00;102353.84;5016035;28;20292;-80
2023/03/01 03:41:02;;;;;;;6.63;3.00;;;;;;;-7.14;100.00;102352.53;4994556;28;20335;-80
2023/03/01 03:43:31;;;;;;;4.90;2.73;;;;;;;-7.15;100.00;102356.75;4980669;28;20292;-81
2023/03/01 03:45:57;;;;;;;4.53;2.80;;;;;;;-7.21;100.00;102345.13;4994921;28;20293;-80
2023/03/01 03:48:25;;;;;;;4.73;3.00;;;;;;;-7.26;100.00;102343.84;5011660;28;20334;-79
2023/03/01 03:50:54;;;;;;;5.93;2.80;;;;;;;-7.27;100.00;102339.50;5002887;28;20335;-79
2023/03/01 03:53:23;;;;;;;4.23;2.60;;;;;;;-7.25;100.00;102340.50;5033046;28;20284;-79
2023/03/01 03:55:49;;;;;;;5.60;3.00;;;;;;;-7.28;100.00;102346.31;5012676;28;20871;-79
2023/03/01 03:58:19;;;;;;;5.80;3.13;;;;;;;-7.37;100.00;102351.63;5001171;28;20740;-79
2023/03/01 04:00:48;;;;;;;5.10;3.00;;;;;;;-7.31;100.00;102351.22;5016596;28;20308;-80
2023/03/01 04:03:16;;;;;;;7.47;3.57;;;;;;;-7.34;100.00;102343.25;5014434;28;20377;-79
2023/03/01 04:05:43;;;;;;;7.50;3.63;;;;;;;-7.37;100.00;102348.16;5014491;28;20299;-79
2023/03/01 04:08:12;;;;;;;4.50;2.67;;;;;;;-7.26;100.00;102341.28;5032024;28;20335;-79
2023/03/01 04:10:41;;;;;;;6.97;3.93;;;;;;;-7.30;100.00;102331.56;4982872;28;20295;-79
2023/03/01 04:13:10;;;;;;;4.37;3.03;;;;;;;-7.26;100.00;102325.88;5010021;28;20293;-79
2023/03/01 04:15:38;;;;;;;5.73;3.07;;;;;;;-7.35;100.00;102335.44;4995205;28;20801;-79
2023/03/01 04:18:05;;;;;;;5.87;3.27;;;;;;;-7.43;100.00;102330.59;4998702;28;20304;-79
2023/03/01 04:20:34;;;;;;;5.63;2.77;;;;;;;-7.27;100.00;102325.00;4996760;28;20307;-79
2023/03/01 04:23:10;;;;;;;6.87;3.00;;;;;;;-7.33;100.00;102323.59;5013484;28;20296;-79
2023/03/01 04:25:41;;;;;;;6.53;3.00;;;;;;;-7.38;100.00;102324.16;5005686;28;20293;-79
2023/03/01 04:28:09;;;;;;;7.30;3.23;;;;;;;-7.36;100.00;102321.72;5011010;28;20288;-79
2023/03/01 04:30:37;;;;;;;5.77;3.27;;;;;;;-7.40;100.00;102329.94;4995654;28;20691;-80
2023/03/01 04:33:08;;;;;;;6.20;3.33;;;;;;;-7.44;100.00;102320.22;5001676;28;20297;-80
2023/03/01 04:35:35;;;;;;;5.60;3.30;;;;;;;-7.46;100.00;102312.41;5015225;28;20300;-79
2023/03/01 04:38:03;;;;;;;7.20;3.47;;;;;;;-7.50;100.00;102317.16;5000911;28;20319;-80
2023/03/01 04:40:30;;;;;;;5.93;3.50;;;;;;;-7.52;100.00;102319.59;4998927;28;20773;-78
2023/03/01 04:42:56;;;;;;;4.50;2.90;;;;;;;-7.56;100.00;102311.56;5000715;28;20366;-79
2023/03/01 04:45:23;;;;;;;7.30;3.47;;;;;;;-7.52;100.00;102311.91;5021698;28;20327;-80
2023/03/01 04:47:51;;;;;;;4.60;3.20;;;;;;;-7.45;100.00;102315.84;5002954;28;20687;-78
2023/03/01 04:50:23;;;;;;;6.80;2.87;;;;;;;-7.40;100.00;102319.66;5004793;28;20292;-79
2023/03/01 04:52:50;;;;;;;6.00;3.40;;;;;;;-7.55;100.00;102324.50;5000873;28;20292;-79
2023/03/01 04:55:16;;;;;;;8.43;3.90;;;;;;;-7.47;100.00;102312.28;5016290;28;20288;-79
2023/03/01 04:57:43;;;;;;;7.57;3.63;;;;;;;-7.32;100.00;102315.13;4998671;28;20345;-79
2023/03/01 05:00:19;;;;;;;5.67;3.03;;;;;;;-7.26;100.00;102320.75;4983696;28;20296;-79
2023/03/01 05:02:57;;;;;;;5.40;3.03;;;;;;;-7.31;100.00;102322.97;4999753;28;20300;-79
2023/03/01 05:05:36;;;;;;;5.17;2.83;;;;;;;-7.52;100.00;102327.31;5008721;28;20320;-80
2023/03/01 05:08:06;;;;;;;4.30;2.90;;;;;;;-7.52;100.00;102324.75;5016832;28;20349;-80
2023/03/01 05:10:35;;;;;;;5.50;2.90;;;;;;;-7.48;100.00;102313.97;5000769;28;20299;-78
2023/03/01 05:13:03;;;;;;;4.47;2.87;;;;;;;-7.52;100.00;102314.47;4982472;28;20303;-79
2023/03/01 05:15:31;;;;;;;6.50;3.20;;;;;;;-7.63;100.00;102311.84;4994521;28;20292;-79
2023/03/01 05:17:59;;;;;;;4.80;2.73;;;;;;;-7.69;100.00;102299.44;4995966;28;20288;-78
2023/03/01 05:20:26;;;;;;;5.23;3.00;;;;;;;-7.61;100.00;102295.78;4999042;28;20296;-78
2023/03/01 05:22:58;;;;;;;4.20;2.70;;;;;;;-7.56;100.00;102294.50;4995036;28;20324;-79
2023/03/01 05:25:27;;;;;;;4.33;2.40;;;;;;;-7.44;100.00;102294.53;5026732;28;20300;-80
2023/03/01 05:27:53;;;;;;;4.23;3.00;;;;;;;-7.59;100.00;102294.22;4991064;28;20287;-78
2023/03/01 05:30:21;;;;;;;6.80;3.00;;;;;;;-7.70;100.00;102300.22;4995334;28;20303;-78
2023/03/01 05:32:49;;;;;;;6.37;3.53;;;;;;;-7.64;100.00;102305.81;4979088;28;20786;-78
2023/03/01 05:35:17;;;;;;;4.67;3.27;;;;;;;-7.62;100.00;102317.09;5011854;28;20291;-78
2023/03/01 05:37:47;;;;;;;6.50;3.33;;;;;;;-7.58;100.00;102316.56;5004300;28;20292;-79
2023/03/01 05:40:16;;;;;;;5.37;3.00;;;;;;;-7.57;100.00;102315.78;5014674;28;20299;-79
2023/03/01 05:42:44;;;;;;;6.23;2.73;;;;;;;-7.71;100.00;102308.69;4995064;28;20356;-80
2023/03/01 05:45:12;;;;;;;6.37;3.40;;;;;;;-7.72;100.00;102306.91;5012550;28;20643;-79
2023/03/01 05:47:43;;;;;;;4.13;2.73;;;;;;;-7.72;100.00;102307.78;4994541;28;20667;-78
2023/03/01 05:50:20;;;;;;;6.13;3.33;;;;;;;-7.65;100.00;102309.13;4981743;28;20296;-79
2023/03/01 05:53:19;;;;;;;7.57;3.43;;;;;;;-7.63;100.00;102302.47;4984035;28;20292;-79
2023/03/01 05:55:57;;;;;;;10.73;3.30;;;;;;;-7.48;100.00;102306.25;4999269;28;20311;-78
2023/03/01 05:58:27;;;;;;;5.03;3.00;;;;;;;-7.57;100.00;102296.91;4994970;28;20311;-79
2023/03/01 06:00:55;;;;;;;5.07;2.70;;;;;;;-7.61;100.00;102300.94;5018020;28;20303;-79
2023/03/01 06:03:28;;;;;;;4.63;3.07;;;;;;;-7.57;100.00;102299.47;5005597;28;20292;-79
2023/03/01 06:06:07;;;;;;;4.47;3.03;;;;;;;-7.63;100.00;102304.16;4997862;28;20776;-80
2023/03/01 06:08:40;;;;;;;5.87;3.23;;;;;;;-7.59;100.00;102306.16;4994317;28;20285;-80
2023/03/01 06:11:14;;;;;;;5.27;2.73;;;;;;;-7.61;100.00;102307.72;4970413;28;20296;-79
2023/03/01 06:14:06;;;;;;;5.80;3.30;;;;;;;-7.61;100.00;102298.34;4981128;28;20360;-79
2023/03/01 06:16:38;;;;;;;6.13;2.97;;;;;;;-7.58;100.00;102311.41;5005549;28;20289;-79
2023/03/01 06:19:24;;;;;;;4.60;2.87;;;;;;;-7.57;100.00;102305.50;5002471;28;20643;-78
2023/03/01 06:21:54;;;;;;;5.53;2.87;;;;;;;-7.49;100.00;102303.53;4976791;28;20296;-79
2023/03/01 06:24:21;;;;;;;7.80;2.53;;;;;;;-7.38;100.00;102301.06;4993724;28;20304;-80
2023/03/01 06:26:47;;;;;;;6.20;3.17;;;;;;;-7.41;100.00;102308.50;5018205;28;20295;-80
2023/03/01 06:29:14;;;;;;;6.33;3.20;;;;;;;-7.32;100.00;102303.19;4993923;28;20459;-79
2023/03/01 06:31:41;;;;;;;4.77;3.13;;;;;;;-7.27;100.00;102300.97;5025370;28;20346;-80
2023/03/01 06:34:07;;;;;;;5.90;3.63;;;;;;;-7.24;100.00;102308.91;4999892;28;20342;-80
2023/03/01 06:36:34;;;;;;;6.00;2.97;;;;;;;-7.05;100.00;102304.44;5007639;28;20361;-80
2023/03/01 06:39:00;;;;;;;5.13;2.87;;;;;;;-6.92;100.00;102303.69;5002647;28;20288;-80
2023/03/01 06:41:27;;;;;;;5.63;2.90;;;;;;;-6.84;100.00;102310.28;4977295;28;20342;-79
2023/03/01 06:43:54;;;;;;;5.07;2.97;;;;;;;-6.89;100.00;102309.06;4993248;28;20292;-80
2023/03/01 06:46:21;;;;;;;8.03;3.57;;;;;;;-7.02;100.00;102312.34;4991260;28;20318;-79
2023/03/01 06:48:48;;;;;;;6.27;3.13;;;;;;;-7.03;100.00;102313.16;4988087;28;20288;-80
2023/03/01 06:51:15;;;;;;;8.00;3.47;;;;;;;-6.94;100.00;102316.41;5007569;28;20304;-79
2023/03/01 06:53:41;;;;;;;5.57;3.63;;;;;;;-6.92;100.00;102314.84;4994973;28;20342;-80
2023/03/01 06:56:08;;;;;;;5.33;3.07;;;;;;;-6.83;100.00;102317.22;4994716;28;20785;-79
2023/03/01 06:58:35;;;;;;;4.17;2.80;;;;;;;-6.74;100.00;102325.63;4986353;28;20303;-79
2023/03/01 07:01:05;;;;;;;6.40;3.37;;;;;;;-6.71;100.00;102324.97;4994940;28;20704;-79
2023/03/01 07:03:32;;;;;;;3.70;2.50;;;;;;;-6.67;100.00;102316.69;4995750;28;20657;-79
2023/03/01 07:05:59;;;;;;;8.37;3.43;;;;;;;-6.68;100.00;102323.53;4982681;28;20355;-80
2023/03/01 07:08:25;;;;;;;4.70;3.40;;;;;;;-6.70;100.00;102319.06;4993005;28;20814;-79
2023/03/01 07:10:59;;;;;;;5.80;3.10;;;;;;;-6.64;100.00;102323.00;4996283;28;21046;-80
2023/03/01 07:13:25;;;;;;;6.63;3.43;;;;;;;-6.63;100.00;102318.75;5015373;28;20277;-78
2023/03/01 07:15:52;;;;;;;7.43;2.93;;;;;;;-6.56;100.00;102323.53;5015421;28;20654;-80
2023/03/01 07:18:19;;;;;;;5.10;2.90;;;;;;;-6.48;100.00;102324.09;5014095;28;20284;-79
2023/03/01 07:20:45;;;;;;;6.73;3.47;;;;;;;-6.42;100.00;102315.19;4999603;28;20293;-78
2023/03/01 07:23:12;;;;;;;6.33;3.27;;;;;;;-6.32;100.00;102327.03;4994271;28;20308;-80
2023/03/01 07:25:38;;;;;;;8.40;3.30;;;;;;;-6.21;100.00;102312.41;5013070;28;20291;-78
2023/03/01 07:28:05;;;;;;;6.03;3.93;;;;;;;-6.12;100.00;102311.41;4994291;28;20293;-80
2023/03/01 07:30:32;;;;;;;7.63;3.80;;;;;;;-6.05;100.00;102320.47;5021181;28;20297;-79
2023/03/01 07:32:58;;;;;;;6.40;3.33;;;;;;;-5.96;100.00;102319.47;4963555;28;20281;-79
2023/03/01 07:35:26;;;;;;;6.10;3.03;;;;;;;-5.85;100.00;102317.63;4979525;28;20034;-80
2023/03/01 07:37:53;;;;;;;5.77;3.57;;;;;;;-5.73;100.00;102325.31;4979595;28;20858;-80
2023/03/01 07:40:19;;;;;;;8.03;3.93;;;;;;;-5.63;100.00;102316.56;4963789;28;20053;-81
2023/03/01 07:42:46;;;;;;;9.83;5.40;;;;;;;-5.51;100.00;102318.34;4973759;28;20091;-80
2023/03/01 07:45:13;;;;;;;7.23;4.30;;;;;;;-5.38;100.00;102309.81;4990476;28;20588;-79
2023/03/01 07:47:40;;;;;;;9.97;5.43;;;;;;;-5.24;100.00;102306.50;4999789;28;20078;-81
2023/03/01 07:50:07;;;;;;;8.07;4.60;;;;;;;-5.08;100.00;102312.72;4979195;28;20041;-79
2023/03/01 07:52:34;;;;;;;7.70;5.43;;;;;;;-4.94;100.00;102318.03;4996069;28;20545;-79
2023/03/01 07:55:00;;;;;;;10.13;5.13;;;;;;;-4.78;100.00;102321.66;4976198;28;20037;-79
2023/03/01 07:57:27;;;;;;;8.87;4.70;;;;;;;-4.63;100.00;102314.94;4996976;28;20049;-80
2023/03/01 07:59:54;;;;;;;6.53;4.23;;;;;;;-4.45;100.00;102316.19;5021764;28;20041;-80
2023/03/01 08:02:21;;;;;;;8.00;4.77;;;;;;;-4.32;100.00;102310.13;4980078;28;20124;-79
2023/03/01 08:04:48;;;;;;;9.53;5.37;;;;;;;-4.13;100.00;102320.84;5030652;28;20034;-79
2023/03/01 08:07:14;;;;;;;8.63;4.33;;;;;;;-3.98;100.00;102320.97;5003148;28;20068;-80
2023/03/01 08:09:41;;;;;;;11.87;5.17;;;;;;;-3.87;100.00;102316.47;5002842;28;20049;-80
2023/03/01 08:12:08;;;;;;;8.93;5.43;;;;;;;-3.69;100.00;102315.09;5017607;28;20064;-79
2023/03/01 08:14:34;;;;;;;7.97;5.13;;;;;;;-3.56;100.00;102312.47;5004886;28;20029;-79
2023/03/01 08:17:02;;;;;;;11.37;5.37;;;;;;;-3.43;100.00;102312.47;5002275;28;20535;-79
2023/03/01 08:19:29;;;;;;;8.90;5.93;;;;;;;-3.27;100.00;102303.97;5019460;28;20030;-79
2023/03/01 08:21:58;;;;;;;9.07;5.17;;;;;;;-3.11;100.00;102305.81;5018216;28;20037;-80
2023/03/01 08:24:24;;;;;;;8.20;5.47;;;;;;;-2.98;100.00;102300.56;5016224;28;20060;-78
2023/03/01 08:26:51;;;;;;;10.70;6.90;;;;;;;-2.84;100.00;102297.13;5010784;28;20037;-79
2023/03/01 08:29:17;;;;;;;10.07;5.70;;;;;;;-2.64;100.00;102290.53;5017334;28;20076;-79
2023/03/01 08:31:44;;;;;;;11.97;5.50;;;;;;;-2.52;100.00;102282.63;5003536;28;20042;-80
2023/03/01 08:34:12;;;;;;;9.20;5.47;;;;;;;-2.43;100.00;102285.75;4996295;28;20037;-79
2023/03/01 08:36:42;;;;;;;7.63;4.97;;;;;;;-2.30;100.00;102276.97;5008105;28;20099;-79
2023/03/01 08:39:10;;;;;;;7.97;5.50;;;;;;;-2.14;100.00;102278.72;5004708;28;20033;-80
2023/03/01 08:41:37;;;;;;;9.30;5.90;;;;;;;-1.98;100.00;102273.63;5018563;28;20084;-80
2023/03/01 08:44:05;;;;;;;11.03;5.50;;;;;;;-1.86;100.00;102269.09;5051732;23;20032;-82
2023/03/01 08:46:34;;;;;;;7.13;4.90;;;;;;;-1.73;100.00;102275.88;5034344;28;20127;-82
2023/03/01 08:49:04;;;;;;;10.63;5.93;;;;;;;-1.60;100.00;102270.53;5015518;28;20080;-82
2023/03/01 08:51:32;;;;;;;8.83;5.20;;;;;;;-1.48;100.00;102270.31;5020282;28;20071;-81
2023/03/01 08:53:59;;;;;;;8.03;4.70;;;;;;;-1.38;100.00;102270.00;5044268;28;20037;-81
2023/03/01 08:56:25;;;;;;;9.57;5.60;;;;;;;-1.27;100.00;102271.47;5023900;28;20083;-79
2023/03/01 08:58:52;;;;;;;8.77;5.13;;;;;;;-1.14;100.00;102260.94;5045597;28;20067;-81
2023/03/01 09:01:19;;;;;;;7.07;5.00;;;;;;;-1.03;100.00;102268.38;5047015;28;20102;-80
2023/03/01 09:03:46;;;;;;;6.70;4.70;;;;;;;-0.92;100.00;102269.84;5004790;28;20047;-79
2023/03/01 09:06:14;;;;;;;9.57;4.83;;;;;;;-0.80;100.00;102266.97;5043831;28;20040;-79
2023/03/01 09:08:43;;;;;;;7.20;4.03;;;;;;;-0.65;100.00;102260.88;5042239;28;20144;-81
2023/03/01 09:11:13;;;;;;;5.97;4.33;;;;;;;-0.54;100.00;102269.19;5076078;28;20068;-78
2023/03/01 09:13:39;;;;;;;7.77;3.80;;;;;;;-0.40;100.00;102269.91;5027350;28;20037;-79
2023/03/01 09:16:12;;;;;;;8.40;4.07;;;;;;;-0.12;100.00;102265.22;5058569;28;20173;-80
2023/03/01 09:18:39;;;;;;;6.40;3.53;;;;;;;0.02;100.00;102265.00;5060912;28;20037;-81
2023/03/01 09:21:11;;;;;;;4.20;2.83;;;;;;;0.23;100.00;102264.31;5022487;28;20105;-79
2023/03/01 09:23:45;;;;;;;3.83;2.70;;;;;;;0.36;100.00;102263.19;5030101;28;20037;-79
2023/03/01 09:26:22;;;;;;;;;;;;;;;0.47;100.00;102266.28;5044418;28;20048;-79
2023/03/01 09:28:50;;;;;;;4.33;2.90;;;;;;;0.64;100.00;102259.25;5061944;28;19966;-79
2023/03/01 09:31:18;;;;;;;5.00;3.40;;;;;;;0.87;100.00;102261.16;5046314;28;20044;-79
2023/03/01 09:33:47;;;;;;;3.30;2.47;;;;;;;1.16;100.00;102253.75;5012887;28;20675;-80
2023/03/01 09:36:22;;;;;;;4.80;2.93;;;;;;;1.45;99.08;102255.88;5028384;28;20041;-79
2023/03/01 09:38:49;;;;;;;4.90;2.83;;;;;;;1.79;95.44;102257.28;5030881;28;20064;-80
2023/03/01 09:41:44;;;;;;;4.10;2.57;;;;;;;2.04;94.78;102256.56;5026240;28;20047;-80
2023/03/01 09:44:33;;;;;;;5.70;2.40;;;;;;;2.30;93.55;102241.94;5058093;28;20037;-78
2023/03/01 09:47:00;;;;;;;3.83;2.47;;;;;;;2.66;83.71;102245.03;5057023;28;20091;-79
2023/03/01 09:49:32;;;;;;;4.50;2.70;;;;;;;3.08;81.20;102243.06;5052953;28;20033;-80
2023/03/01 09:52:19;;;;;;;3.60;2.17;;;;;;;3.39;71.46;102235.47;5022552;28;20059;-80
2023/03/01 09:54:46;;;;;;;5.43;2.60;;;;;;;3.55;67.97;102239.50;5021947;28;20072;-79
2023/03/01 09:57:19;;;;;;;3.87;2.70;;;;;;;3.88;71.25;102241.44;5035494;28;20033;-79
2023/03/01 09:59:58;;;;;;;4.57;2.43;;;;;;;4.14;73.54;102239.66;5020479;28;20099;-79
2023/03/01 10:02:37;;;;;;;4.63;2.80;;;;;;;4.39;65.05;102242.16;5035039;28;20041;-80
2023/03/01 10:05:43;;;;;;;3.60;2.53;;;;;;;4.52;63.63;102236.44;5017533;28;20094;-78
2023/03/01 10:08:41;;;;;;;4.07;2.63;;;;;;;4.86;67.57;102237.41;5031575;28;20041;-78
2023/03/01 10:11:32;;;;;;;6.20;2.80;;;;;;;5.07;62.76;102227.53;5032614;28;20044;-78
2023/03/01 10:14:03;;;;;;;4.80;2.90;;;;;;;5.25;64.42;102234.13;5011748;28;20425;-78
2023/03/01 10:16:57;;;;;;;5.87;3.03;;;;;;;5.44;62.65;102231.13;5029096;28;20037;-77
2023/03/01 10:19:28;;;;;;;4.72;3.25;;;;;;;5.66;59.06;102219.44;5036720;28;20033;-77
2023/03/01 10:22:02;;;;;;;5.33;3.53;;;;;;;5.65;59.21;102217.69;5070531;28;20668;-77
2023/03/01 10:24:33;;;;;;;6.20;3.60;;;;;;;5.82;57.25;102204.97;5031318;28;20029;-79
2023/03/01 10:27:17;;;;;;;5.10;2.97;;;;;;;5.84;59.46;102208.50;5032718;28;20037;-78
2023/03/01 10:29:49;;;;;;;;;;;;;;;6.08;58.74;102203.88;5036835;28;20062;-78
2023/03/01 10:32:16;;;;;;;5.53;3.17;;;;;;;6.30;57.11;102201.69;5021536;28;19920;-79
2023/03/01 10:34:42;;;;;;;6.43;3.80;;;;;;;6.26;56.59;102198.13;5022992;28;20684;-78
2023/03/01 10:37:15;;;;;;;7.80;4.03;;;;;;;6.33;55.66;102194.78;5051475;28;20045;-79
2023/03/01 10:39:56;;;;;;;7.07;3.87;;;;;;;6.28;55.71;102200.78;5049671;28;20170;-78
2023/03/01 10:42:31;;;;;;;6.37;4.33;;;;;;;6.53;58.13;102192.56;5036446;28;20116;-79
2023/03/01 10:45:15;;;;;;;5.40;3.80;;;;;;;6.71;55.31;102192.06;5034934;28;20033;-78
2023/03/01 10:47:42;;;;;;;7.63;4.05;;;;;;;6.73;55.58;102190.38;5035740;28;20037;-79
2023/03/01 10:50:22;;;;;;;7.17;3.43;;;;;;;6.81;54.38;102188.78;5019510;28;20052;-78
2023/03/01 10:53:00;;;;;;;4.67;3.20;;;;;;;6.72;52.72;102189.44;5019356;28;20047;-78
2023/03/01 10:55:33;;;;;;;6.03;3.83;;;;;;;6.84;54.75;102188.81;5052959;28;20047;-78
2023/03/01 10:58:20;;;;;;;5.07;3.27;;;;;;;6.98;54.83;102178.59;5053325;28;20037;-79
2023/03/01 11:00:55;;;;;;;7.33;3.50;;;;;;;6.81;52.59;102180.91;5051729;28;20120;-78
2023/03/01 11:03:31;;;;;;;7.17;4.03;;;;;;;7.07;52.37;102177.88;5053175;28;20037;-78
2023/03/01 11:05:57;;;;;;;5.97;3.63;;;;;;;7.20;53.93;102175.47;5051985;28;20037;-78
2023/03/01 11:08:33;;;;;;;6.27;4.03;;;;;;;7.38;52.77;102180.16;5019053;28;20095;-78
2023/03/01 11:11:06;;;;;;;8.43;4.73;;;;;;;7.50;50.23;102171.59;5031346;28;20516;-79
2023/03/01 11:13:33;;;;;;;4.50;3.10;;;;;;;7.45;50.49;102173.25;5056311;28;20033;-78
2023/03/01 11:16:03;;;;;;;4.97;3.13;;;;;;;7.50;50.88;102166.34;5037306;28;20028;-79
2023/03/01 11:18:30;;;;;;;6.30;3.47;;;;;;;7.73;50.73;102171.94;5023090;28;20041;-78
2023/03/01 11:21:15;;;;;;;5.33;2.77;;;;;;;7.71;50.83;102171.94;5037691;28;20498;-79
2023/03/01 11:23:43;;;;;;;5.47;3.27;;;;;;;7.83;51.91;102169.50;5061436;28;20069;-78
2023/03/01 11:26:10;;;;;;;34.13;21.93;;;;;;;8.02;49.95;102161.88;5027876;28;20037;-78
2023/03/01 11:28:39;;;;;;;9.17;7.00;;;;;;;7.82;50.46;102167.72;5032977;28;20075;-78
2023/03/01 11:31:09;;;;;;;4.97;3.43;;;;;;;7.95;49.97;102160.88;5014518;28;20033;-78
2023/03/01 11:33:48;;;;;;;7.03;3.60;;;;;;;7.95;47.42;102168.78;5035095;28;20119;-79
2023/03/01 11:36:37;;;;;;;5.73;3.30;;;;;;;7.82;49.43;102157.22;5029570;28;20033;-79